createdAt,value
2019-03-31T00:00:45.345Z,5.23
2019-03-31T00:03:14.731Z,5.27
2019-03-31T00:05:44.108Z,6.00
2019-03-31T00:08:13.426Z,5.43
2019-03-31T00:10:50.274Z,4.80
2019-03-31T00:13:19.558Z,4.80
2019-03-31T00:15:49.727Z,4.83
2019-03-31T00:18:19.246Z,4.40
2019-03-31T00:20:50.025Z,4.87
2019-03-31T00:23:19.332Z,5.10
2019-03-31T00:25:51.347Z,5.30
2019-03-31T00:28:21.014Z,5.43
2019-03-31T00:30:51.139Z,5.10
2019-03-31T00:33:20.506Z,4.90
2019-03-31T00:35:49.852Z,5.03
2019-03-31T00:38:19.258Z,4.90
2019-03-31T00:40:48.619Z,5.10
2019-03-31T00:43:17.998Z,4.78
2019-03-31T00:45:47.738Z,4.63
2019-03-31T00:48:17.213Z,5.20
2019-03-31T00:50:46.782Z,4.83
2019-03-31T00:53:17.798Z,4.70
2019-03-31T00:55:47.073Z,5.80
2019-03-31T00:58:16.475Z,4.93
2019-03-31T01:01:35.772Z,5.00
2019-03-31T01:03:54.104Z,5.63
2019-03-31T01:06:24.030Z,5.70
2019-03-31T01:08:53.653Z,5.47
2019-03-31T01:11:27.682Z,5.77
2019-03-31T01:16:27.141Z,5.20
2019-03-31T01:18:56.424Z,5.97
2019-03-31T01:21:25.758Z,5.87
2019-03-31T01:23:55.122Z,6.17
2019-03-31T01:26:24.464Z,6.37
2019-03-31T01:28:54.210Z,6.30
2019-03-31T01:31:23.579Z,6.53
2019-03-31T01:33:52.863Z,6.35
2019-03-31T01:36:22.422Z,5.70
2019-03-31T01:38:51.703Z,5.73
2019-03-31T01:41:21.239Z,5.87
2019-03-31T01:43:50.515Z,6.03
2019-03-31T01:46:22.929Z,5.50
2019-03-31T01:48:52.382Z,5.30
2019-03-31T01:51:21.815Z,5.33
2019-03-31T01:53:51.094Z,5.13
2019-03-31T01:56:21.003Z,5.12
2019-03-31T01:58:50.313Z,5.50
2019-03-31T02:01:19.924Z,5.43
2019-03-31T02:03:49.466Z,5.17
2019-03-31T02:06:18.760Z,5.70
2019-03-31T02:08:48.082Z,5.23
2019-03-31T02:11:18.893Z,5.37
2019-03-31T02:13:49.855Z,5.10
2019-03-31T02:16:19.827Z,5.87
2019-03-31T02:18:49.084Z,5.80
2019-03-31T02:21:18.369Z,5.80
2019-03-31T02:23:47.663Z,5.10
2019-03-31T02:26:17.100Z,5.90
2019-03-31T02:28:46.365Z,5.17
2019-03-31T02:31:15.694Z,5.30
2019-03-31T02:33:45.043Z,5.47
2019-03-31T02:36:14.663Z,5.50
2019-03-31T02:38:44.783Z,5.87
2019-03-31T02:41:14.090Z,5.30
2019-03-31T02:43:43.360Z,5.80
2019-03-31T02:46:12.655Z,5.50
2019-03-31T02:48:41.938Z,6.77
2019-03-31T02:51:11.239Z,6.15
2019-03-31T02:53:40.629Z,6.00
2019-03-31T02:56:11.977Z,6.77
2019-03-31T02:58:41.699Z,6.10
2019-03-31T03:01:12.256Z,5.70
2019-03-31T03:03:42.441Z,5.90
2019-03-31T03:06:14.202Z,6.45
2019-03-31T03:08:46.556Z,6.13
2019-03-31T03:11:17.858Z,6.05
2019-03-31T03:13:49.567Z,6.23
2019-03-31T03:16:20.474Z,7.10
2019-03-31T03:18:50.528Z,6.30
2019-03-31T03:21:24.113Z,7.12
2019-03-31T03:23:52.717Z,7.03
2019-03-31T03:26:24.429Z,7.17
2019-03-31T03:28:53.869Z,6.90
2019-03-31T03:31:25.485Z,7.57
2019-03-31T03:33:54.848Z,7.20
2019-03-31T03:36:24.162Z,7.63
2019-03-31T03:38:53.443Z,7.67
2019-03-31T03:41:22.722Z,7.47
2019-03-31T03:43:59.578Z,7.33
2019-03-31T03:46:23.007Z,6.73
2019-03-31T03:48:52.317Z,6.90
2019-03-31T03:51:21.874Z,7.70
2019-03-31T03:53:51.254Z,7.53
2019-03-31T03:56:20.561Z,7.80
2019-03-31T03:58:50.774Z,7.28
2019-03-31T04:01:38.357Z,7.13
2019-03-31T04:04:07.650Z,6.83
2019-03-31T04:06:36.922Z,6.47
2019-03-31T04:09:07.481Z,6.60
2019-03-31T04:11:36.784Z,6.85
2019-03-31T04:14:06.154Z,7.10
2019-03-31T04:16:35.428Z,6.50
2019-03-31T04:19:05.863Z,6.55
2019-03-31T04:21:35.131Z,7.23
2019-03-31T04:24:04.504Z,6.63
2019-03-31T04:26:33.790Z,6.80
2019-03-31T04:29:03.085Z,7.30
2019-03-31T04:31:32.431Z,8.30
2019-03-31T04:34:01.719Z,7.83
2019-03-31T04:36:30.988Z,7.72
2019-03-31T04:39:00.787Z,8.10
2019-03-31T04:41:30.251Z,7.77
2019-03-31T04:43:59.548Z,7.87
2019-03-31T04:46:29.011Z,8.37
2019-03-31T04:48:58.299Z,8.33
2019-03-31T04:51:27.645Z,8.37
2019-03-31T04:53:56.954Z,8.83
2019-03-31T04:56:26.253Z,7.80
2019-03-31T04:58:55.549Z,8.47
2019-03-31T05:01:24.817Z,8.30
2019-03-31T05:04:04.617Z,8.18
2019-03-31T05:06:25.092Z,7.63
2019-03-31T05:08:54.484Z,8.50
2019-03-31T05:11:23.790Z,8.40
2019-03-31T05:13:53.074Z,8.90
2019-03-31T05:16:22.376Z,8.47
2019-03-31T05:18:52.762Z,8.55
2019-03-31T05:21:22.038Z,8.53
2019-03-31T05:23:51.329Z,8.93
2019-03-31T05:26:20.627Z,9.07
2019-03-31T05:28:49.934Z,9.13
2019-03-31T05:31:19.218Z,9.15
2019-03-31T05:33:48.506Z,8.47
2019-03-31T05:36:17.897Z,8.88
2019-03-31T05:38:47.150Z,8.50
2019-03-31T05:41:16.429Z,8.68
2019-03-31T05:43:45.710Z,9.00
2019-03-31T05:46:14.998Z,8.43
2019-03-31T05:48:44.259Z,8.27
2019-03-31T05:51:13.788Z,8.17
2019-03-31T05:53:43.152Z,8.60
2019-03-31T05:56:12.448Z,9.13
2019-03-31T05:58:41.739Z,8.87
2019-03-31T06:01:11.045Z,7.93
2019-03-31T06:03:40.351Z,8.10
2019-03-31T06:06:09.659Z,8.60
2019-03-31T06:08:38.946Z,8.98
2019-03-31T06:11:08.233Z,8.73
2019-03-31T06:13:37.513Z,9.10
2019-03-31T06:16:06.814Z,9.63
2019-03-31T06:18:36.091Z,9.13
2019-03-31T06:21:05.386Z,9.80
2019-03-31T06:23:34.910Z,8.98
2019-03-31T06:26:04.376Z,7.97
2019-03-31T06:28:33.750Z,8.07
2019-03-31T06:31:03.034Z,7.83
2019-03-31T06:33:32.348Z,8.13
2019-03-31T06:36:01.717Z,7.55
2019-03-31T06:38:30.978Z,7.73
2019-03-31T06:41:00.259Z,8.13
2019-03-31T06:43:29.549Z,7.17
2019-03-31T06:45:58.852Z,6.95
2019-03-31T06:48:28.154Z,7.00
2019-03-31T06:50:57.460Z,7.47
2019-03-31T06:53:26.734Z,7.28
2019-03-31T06:55:56.005Z,6.77
2019-03-31T06:58:25.436Z,6.87
2019-03-31T07:00:54.814Z,7.43
2019-03-31T07:03:24.330Z,7.17
2019-03-31T07:05:53.620Z,7.63
2019-03-31T07:08:22.914Z,7.33
2019-03-31T07:10:52.198Z,7.23
2019-03-31T07:13:21.555Z,7.08
2019-03-31T07:15:50.866Z,7.60
2019-03-31T07:18:20.749Z,6.70
2019-03-31T07:20:50.194Z,6.97
2019-03-31T07:23:19.503Z,7.30
2019-03-31T07:25:48.793Z,10.30
2019-03-31T07:28:18.121Z,7.70
2019-03-31T07:30:47.637Z,7.53
2019-03-31T07:33:16.925Z,7.50
2019-03-31T07:35:46.217Z,7.40
2019-03-31T07:39:30.060Z,6.90
2019-03-31T08:03:52.224Z,6.58
2019-03-31T08:07:14.513Z,7.53
2019-03-31T08:09:51.947Z,6.97
2019-03-31T08:12:43.948Z,12.63
2019-03-31T08:16:02.603Z,7.93
2019-03-31T08:19:20.881Z,7.33
2019-03-31T08:23:03.070Z,7.17
2019-03-31T08:40:54.197Z,7.80
2019-03-31T08:43:40.819Z,7.37
2019-03-31T08:46:35.608Z,7.77
2019-03-31T09:45:08.313Z,12.13
2019-03-31T10:02:51.198Z,15.68
2019-03-31T10:05:35.926Z,14.20
2019-03-31T10:09:24.238Z,15.23
2019-03-31T10:15:37.934Z,12.93
2019-03-31T10:18:07.338Z,12.97
2019-03-31T10:20:38.680Z,14.00
2019-03-31T10:23:08.050Z,14.30
2019-03-31T10:25:37.927Z,13.60
2019-03-31T10:28:07.760Z,13.27
2019-03-31T10:30:38.336Z,12.57
2019-03-31T10:33:11.928Z,13.83
2019-03-31T10:35:42.775Z,13.00
2019-03-31T10:38:14.778Z,13.62
2019-03-31T10:40:44.166Z,12.80
2019-03-31T10:43:13.578Z,13.15
2019-03-31T10:45:42.868Z,14.30
2019-03-31T10:48:20.262Z,15.28
2019-03-31T10:50:43.410Z,13.67
2019-03-31T10:53:12.873Z,13.60
2019-03-31T10:55:42.198Z,13.07
2019-03-31T10:58:12.834Z,13.53
2019-03-31T11:00:44.520Z,13.80
2019-03-31T11:03:13.212Z,13.03
2019-03-31T11:05:44.393Z,14.10
2019-03-31T11:08:13.694Z,13.23
2019-03-31T11:10:42.974Z,11.87
2019-03-31T11:13:14.934Z,11.60
2019-03-31T11:15:46.037Z,12.37
2019-03-31T11:18:15.818Z,12.27
2019-03-31T11:20:45.442Z,11.68
2019-03-31T11:23:19.513Z,11.17
2019-03-31T11:25:49.003Z,11.40
2019-03-31T11:28:18.763Z,11.27
2019-03-31T11:30:48.063Z,11.33
2019-03-31T11:33:19.322Z,12.23
2019-03-31T11:35:48.791Z,11.30
2019-03-31T11:38:21.616Z,12.20
2019-03-31T11:40:51.709Z,11.77
2019-03-31T11:43:25.380Z,12.37
2019-03-31T11:45:55.030Z,29.97
2019-03-31T11:48:24.606Z,13.83
2019-03-31T11:50:53.983Z,12.97
2019-03-31T11:53:23.426Z,12.47
2019-03-31T11:55:52.865Z,11.83
2019-03-31T11:58:23.476Z,12.23
2019-03-31T12:00:58.004Z,12.80
2019-03-31T12:03:31.015Z,11.73
2019-03-31T12:06:02.072Z,12.90
2019-03-31T12:08:31.571Z,12.83
2019-03-31T12:11:01.413Z,13.50
2019-03-31T12:13:30.800Z,13.80
2019-03-31T12:16:00.418Z,14.60
2019-03-31T12:18:29.735Z,13.58
2019-03-31T12:20:59.350Z,13.83
2019-03-31T12:23:28.862Z,14.90
2019-03-31T12:25:58.395Z,15.60
2019-03-31T12:28:28.223Z,14.13
2019-03-31T12:30:58.155Z,13.60
2019-03-31T12:33:28.522Z,15.03
2019-03-31T12:35:58.220Z,13.78
2019-03-31T12:38:27.936Z,14.20
2019-03-31T12:40:57.283Z,14.20
2019-03-31T12:43:26.618Z,14.33
2019-03-31T12:45:55.955Z,13.73
2019-03-31T12:48:25.250Z,13.00
2019-03-31T12:50:54.672Z,14.45
2019-03-31T12:53:25.018Z,14.97
2019-03-31T12:56:00.391Z,13.80
2019-03-31T12:58:28.303Z,12.70
2019-03-31T13:00:58.645Z,13.98
2019-03-31T13:03:29.094Z,13.93
2019-03-31T13:05:59.414Z,14.17
2019-03-31T13:08:28.720Z,12.93
2019-03-31T13:10:58.935Z,13.40
2019-03-31T13:13:28.277Z,13.10
2019-03-31T13:15:57.590Z,12.97
2019-03-31T13:18:28.199Z,12.47
2019-03-31T13:20:58.054Z,12.30
2019-03-31T13:23:27.452Z,12.70
2019-03-31T13:25:56.767Z,13.17
2019-03-31T13:28:26.093Z,13.53
2019-03-31T13:30:55.397Z,13.70
2019-03-31T13:33:24.698Z,12.98
2019-03-31T13:35:54.090Z,12.80
2019-03-31T13:38:23.414Z,11.93
2019-03-31T13:40:52.857Z,11.13
2019-03-31T13:43:22.166Z,10.63
2019-03-31T13:45:51.480Z,11.40
2019-03-31T13:48:20.812Z,12.13
2019-03-31T13:50:51.753Z,12.88
2019-03-31T13:53:23.123Z,12.73
2019-03-31T13:55:52.477Z,11.28
2019-03-31T13:58:23.526Z,11.57
2019-03-31T14:00:52.893Z,11.50
2019-03-31T14:03:22.190Z,11.97
2019-03-31T14:05:51.558Z,11.60
2019-03-31T14:08:26.094Z,10.67
2019-03-31T14:10:52.682Z,11.40
2019-03-31T14:13:21.992Z,10.90
2019-03-31T14:15:52.797Z,10.80
2019-03-31T14:18:22.100Z,10.53
2019-03-31T14:20:51.604Z,10.93
2019-03-31T14:23:21.738Z,10.70
2019-03-31T14:25:51.146Z,10.20
2019-03-31T14:28:20.931Z,11.10
2019-03-31T14:30:50.246Z,10.97
2019-03-31T14:33:19.526Z,11.05
2019-03-31T14:35:48.984Z,11.12
2019-03-31T14:38:18.388Z,10.80
2019-03-31T14:40:47.834Z,20.17
2019-03-31T14:43:17.183Z,10.63
2019-03-31T14:45:46.583Z,11.37
2019-03-31T14:48:15.998Z,11.37
2019-03-31T14:50:45.347Z,10.70
2019-03-31T14:53:14.711Z,10.00
2019-03-31T14:55:44.033Z,11.20
2019-03-31T14:58:13.324Z,11.70
2019-03-31T15:00:42.644Z,12.18
2019-03-31T15:03:12.093Z,11.83
2019-03-31T15:05:41.406Z,13.50
2019-03-31T15:08:12.955Z,14.40
2019-03-31T15:10:42.277Z,16.00
2019-03-31T15:13:11.662Z,16.23
2019-03-31T15:15:41.882Z,18.33
2019-03-31T15:18:11.359Z,19.77
2019-03-31T15:20:41.153Z,19.43
2019-03-31T15:23:11.005Z,21.10
2019-03-31T15:25:43.038Z,21.40
2019-03-31T15:28:11.520Z,23.23
2019-03-31T15:30:40.838Z,23.83
2019-03-31T15:33:11.711Z,28.27
2019-03-31T15:35:41.034Z,28.60
2019-03-31T15:38:10.526Z,21.02
2019-03-31T15:40:41.180Z,26.70
2019-03-31T15:43:11.301Z,21.93
2019-03-31T15:45:40.687Z,22.77
2019-03-31T15:48:10.779Z,28.10
2019-03-31T15:50:40.059Z,30.60
2019-03-31T15:53:09.354Z,32.40
2019-03-31T15:55:38.646Z,31.70
2019-03-31T15:58:08.167Z,31.73
2019-03-31T16:00:37.454Z,33.15
2019-03-31T16:03:06.821Z,32.30
2019-03-31T16:05:36.113Z,34.53
2019-03-31T16:08:05.072Z,33.57
2019-03-31T16:10:33.941Z,34.43
2019-03-31T16:13:02.804Z,32.93
2019-03-31T16:15:32.427Z,35.10
2019-03-31T16:18:01.284Z,36.07
2019-03-31T16:20:30.235Z,35.63
2019-03-31T16:22:59.067Z,37.53
2019-03-31T16:25:30.644Z,37.37
2019-03-31T16:27:59.426Z,38.10
2019-03-31T16:30:28.706Z,37.17
2019-03-31T16:32:57.489Z,37.17
2019-03-31T16:35:26.276Z,39.83
2019-03-31T16:37:55.066Z,37.40
2019-03-31T16:40:23.964Z,33.60
2019-03-31T16:42:54.399Z,35.83
2019-03-31T16:45:23.170Z,37.83
2019-03-31T16:47:51.942Z,37.67
2019-03-31T16:50:20.728Z,37.07
2019-03-31T16:52:52.491Z,37.37
2019-03-31T16:55:20.050Z,34.33
2019-03-31T16:57:48.833Z,33.97
2019-03-31T17:00:17.973Z,33.55
2019-03-31T17:02:46.742Z,35.10
2019-03-31T17:05:21.936Z,33.53
2019-03-31T17:07:46.599Z,34.20
2019-03-31T17:10:16.890Z,33.53
2019-03-31T17:12:45.654Z,34.20
2019-03-31T17:15:15.044Z,33.20
2019-03-31T17:17:43.831Z,34.33
2019-03-31T17:20:13.093Z,33.93
2019-03-31T17:22:41.867Z,32.40
2019-03-31T17:25:11.027Z,34.27
2019-03-31T17:27:39.782Z,31.25
2019-03-31T17:30:09.142Z,31.53
2019-03-31T17:32:38.006Z,31.62
2019-03-31T17:35:07.046Z,31.53
2019-03-31T17:37:36.503Z,30.30
2019-03-31T17:40:07.195Z,30.88
2019-03-31T17:42:36.327Z,31.02
2019-03-31T17:45:06.556Z,29.27
2019-03-31T17:47:35.337Z,29.57
2019-03-31T17:50:05.307Z,29.37
2019-03-31T17:52:34.151Z,28.10
2019-03-31T17:55:02.942Z,30.48
2019-03-31T17:57:31.810Z,29.50
2019-03-31T18:00:02.342Z,30.82
2019-03-31T18:02:31.114Z,31.10
2019-03-31T18:05:00.398Z,30.10
2019-03-31T18:07:29.341Z,31.83
2019-03-31T18:09:59.916Z,30.43
2019-03-31T18:12:28.678Z,29.27
2019-03-31T18:14:57.604Z,29.80
2019-03-31T18:17:26.370Z,29.27
2019-03-31T18:20:13.682Z,29.83
2019-03-31T18:22:42.509Z,28.07
2019-03-31T18:25:11.873Z,29.10
2019-03-31T18:27:40.938Z,26.90
2019-03-31T18:30:09.964Z,27.30
2019-03-31T18:32:38.775Z,25.93
2019-03-31T18:35:08.006Z,27.00
2019-03-31T18:37:36.761Z,26.02
2019-03-31T18:40:06.467Z,26.83
2019-03-31T18:42:35.316Z,26.23
2019-03-31T18:45:04.998Z,26.40
2019-03-31T18:47:34.399Z,26.97
2019-03-31T18:50:03.261Z,26.43
2019-03-31T18:52:32.045Z,25.37
2019-03-31T18:55:16.602Z,25.40
2019-03-31T18:58:00.847Z,27.52
2019-03-31T19:00:47.518Z,23.87
2019-03-31T19:03:34.286Z,21.17
2019-03-31T19:06:21.045Z,19.65
2019-03-31T19:08:59.553Z,19.80
2019-03-31T19:11:35.940Z,21.83
2019-03-31T19:14:27.233Z,18.40
2019-03-31T19:17:09.065Z,17.63
2019-03-31T19:19:59.727Z,17.37
2019-03-31T19:22:37.044Z,16.00
2019-03-31T19:25:28.846Z,17.17
2019-03-31T19:28:29.000Z,15.07
2019-03-31T19:31:26.235Z,16.07
2019-03-31T19:34:03.887Z,14.83
2019-03-31T19:36:54.536Z,14.97
2019-03-31T19:39:41.351Z,14.65
2019-03-31T19:42:19.594Z,14.70
2019-03-31T19:44:58.302Z,15.33
2019-03-31T19:47:43.506Z,15.07
2019-03-31T19:50:34.409Z,15.53
2019-03-31T19:53:25.447Z,14.97
2019-03-31T19:56:28.408Z,15.80
2019-03-31T19:59:18.123Z,14.23
2019-03-31T20:01:57.026Z,14.50
2019-03-31T20:04:50.766Z,14.77
2019-03-31T20:07:39.947Z,15.50
2019-03-31T20:10:21.821Z,15.13
2019-03-31T20:13:08.598Z,14.65
2019-03-31T20:15:54.899Z,14.07
2019-03-31T20:18:45.645Z,14.07
2019-03-31T20:21:45.333Z,14.13
2019-03-31T20:24:27.106Z,12.43
2019-03-31T20:27:14.179Z,13.97
2019-03-31T20:29:56.664Z,14.67
2019-03-31T20:32:44.649Z,13.83
2019-03-31T20:35:26.208Z,13.70
2019-03-31T20:38:16.466Z,14.33
2019-03-31T20:41:07.817Z,14.23
2019-03-31T20:43:43.115Z,13.10
2019-03-31T20:46:12.789Z,13.17
2019-03-31T20:48:41.654Z,13.10
2019-03-31T20:51:10.408Z,14.43
2019-03-31T20:53:39.583Z,12.63
2019-03-31T20:56:08.384Z,12.23
2019-03-31T20:58:38.256Z,13.05
2019-03-31T21:01:10.056Z,12.30
2019-03-31T21:03:38.029Z,12.97
2019-03-31T21:06:06.930Z,12.40
2019-03-31T21:08:35.686Z,12.35
2019-03-31T21:11:07.564Z,12.10
2019-03-31T21:13:37.404Z,11.33
2019-03-31T21:16:06.554Z,10.80
2019-03-31T21:18:35.313Z,11.10
2019-03-31T21:21:04.470Z,11.93
2019-03-31T21:23:33.481Z,12.00
2019-03-31T21:26:02.325Z,11.53
2019-03-31T21:28:31.104Z,10.50
2019-03-31T21:30:59.933Z,12.20
2019-03-31T21:33:28.753Z,11.00
2019-03-31T21:35:57.606Z,10.47
2019-03-31T21:38:26.368Z,10.57
2019-03-31T21:40:55.153Z,10.93
2019-03-31T21:43:23.913Z,10.83
2019-03-31T21:45:52.734Z,11.50
2019-03-31T21:48:21.495Z,11.88
2019-03-31T21:50:50.246Z,11.37
2019-03-31T21:53:19.133Z,11.60
2019-03-31T21:55:48.057Z,11.60
2019-03-31T21:58:16.893Z,11.37
2019-03-31T22:00:52.813Z,10.17
2019-03-31T22:03:21.574Z,10.90
2019-03-31T22:05:50.343Z,10.38
2019-03-31T22:08:20.552Z,10.20
2019-03-31T22:10:49.438Z,9.90
2019-03-31T22:13:18.189Z,11.33
2019-03-31T22:15:46.933Z,11.03
2019-03-31T22:18:15.705Z,10.70
2019-03-31T22:20:47.148Z,10.53
2019-03-31T22:23:14.958Z,10.43
2019-03-31T22:25:43.795Z,10.57
2019-03-31T22:28:12.544Z,10.63
2019-03-31T22:30:41.306Z,10.40
2019-03-31T22:33:10.075Z,10.93
2019-03-31T22:35:39.311Z,10.73
2019-03-31T22:38:08.170Z,10.30
2019-03-31T22:40:36.928Z,11.77
2019-03-31T22:43:07.866Z,11.17
2019-03-31T22:45:36.252Z,11.53
2019-03-31T22:48:05.039Z,11.03
2019-03-31T22:50:33.943Z,11.87
2019-03-31T22:53:02.805Z,11.50
2019-03-31T22:55:31.576Z,10.50
2019-03-31T22:58:00.354Z,11.17
2019-03-31T23:00:29.114Z,10.83
2019-03-31T23:02:57.868Z,11.27
2019-03-31T23:05:26.646Z,11.33
2019-03-31T23:07:55.404Z,11.20
2019-03-31T23:10:24.155Z,10.80
2019-03-31T23:12:52.934Z,11.67
2019-03-31T23:15:21.682Z,11.08
2019-03-31T23:17:50.522Z,11.10
2019-03-31T23:20:19.262Z,12.17
2019-03-31T23:22:48.021Z,11.37
2019-03-31T23:25:16.776Z,10.90
2019-03-31T23:27:45.535Z,11.93
2019-03-31T23:30:14.647Z,12.40
2019-03-31T23:32:43.389Z,11.30
2019-03-31T23:35:12.293Z,10.60
2019-03-31T23:37:41.056Z,10.95
2019-03-31T23:40:10.083Z,11.60
2019-03-31T23:42:38.842Z,10.70
2019-03-31T23:45:08.436Z,11.33
2019-03-31T23:47:37.189Z,10.87
2019-03-31T23:50:06.207Z,10.90
2019-03-31T23:52:34.970Z,12.70
2019-03-31T23:55:03.817Z,12.40
2019-03-31T23:57:42.592Z,11.57
